createdAt,value
2019-05-12T00:00:48.429Z,89.6361
2019-05-12T00:01:51.309Z,90.3136
2019-05-12T00:02:54.310Z,90.0603
2019-05-12T00:03:58.062Z,90.2159
2019-05-12T00:05:01.289Z,90.5516
2019-05-12T00:06:04.327Z,90.2220
2019-05-12T00:07:08.703Z,90.5013
2019-05-12T00:08:12.328Z,90.4784
2019-05-12T00:09:15.300Z,90.5791
2019-05-12T00:10:18.306Z,90.2708
2019-05-12T00:11:21.299Z,90.5364
2019-05-12T00:12:24.351Z,90.6004
2019-05-12T00:13:27.888Z,90.5241
2019-05-12T00:14:31.299Z,90.3548
2019-05-12T00:15:34.320Z,90.3593
2019-05-12T00:16:38.437Z,90.4036
2019-05-12T00:17:41.368Z,90.4234
2019-05-12T00:18:43.276Z,90.5043
2019-05-12T00:19:47.912Z,90.7118
2019-05-12T00:20:51.287Z,90.7057
2019-05-12T00:21:54.295Z,91.2978
2019-05-12T00:22:58.143Z,91.4061
2019-05-12T00:24:01.315Z,91.2429
2019-05-12T00:25:04.299Z,90.4677
2019-05-12T00:26:07.929Z,90.9041
2019-05-12T00:27:11.315Z,91.1498
2019-05-12T00:28:14.330Z,90.9758
2019-05-12T00:29:18.459Z,90.9041
2019-05-12T00:30:21.285Z,91.0811
2019-05-12T00:31:24.342Z,91.0719
2019-05-12T00:32:28.185Z,90.9667
2019-05-12T00:33:30.307Z,89.7231
2019-05-12T00:34:32.423Z,89.4347
2019-05-12T00:35:37.849Z,88.7327
2019-05-12T00:36:41.316Z,88.8029
2019-05-12T00:37:44.325Z,89.1005
2019-05-12T00:38:48.495Z,88.6778
2019-05-12T00:39:51.326Z,89.4148
2019-05-12T00:40:54.319Z,89.3935
2019-05-12T00:41:58.641Z,88.9616
2019-05-12T00:43:02.366Z,88.1987
2019-05-12T00:44:05.304Z,86.6743
2019-05-12T00:45:08.338Z,86.5599
2019-05-12T00:46:11.326Z,86.0777
2019-05-12T00:47:14.266Z,86.6606
2019-05-12T00:48:17.823Z,87.0436
2019-05-12T00:49:21.306Z,86.8894
2019-05-12T00:50:24.362Z,87.0939
2019-05-12T00:51:28.845Z,87.8416
2019-05-12T00:52:32.295Z,87.4205
2019-05-12T00:53:40.142Z,87.0130
2019-05-12T00:54:43.318Z,87.6036
2019-05-12T00:55:47.661Z,87.4235
2019-05-12T00:56:49.293Z,87.4250
2019-05-12T00:57:52.341Z,87.4052
2019-05-12T00:58:55.395Z,87.4434
2019-05-12T01:00:00.319Z,86.9993
2019-05-12T01:01:02.264Z,87.1122
2019-05-12T01:02:05.305Z,86.3111
2019-05-12T01:03:08.882Z,85.3361
2019-05-12T01:04:11.316Z,85.2323
2019-05-12T01:05:14.320Z,85.7130
2019-05-12T01:06:17.801Z,86.3661
2019-05-12T01:07:21.301Z,86.4820
2019-05-12T01:08:24.313Z,85.9739
2019-05-12T01:09:28.143Z,85.3834
2019-05-12T01:10:31.301Z,85.5482
2019-05-12T01:11:34.377Z,85.4551
2019-05-12T01:12:38.288Z,85.7252
2019-05-12T01:13:41.309Z,85.3086
2019-05-12T01:14:44.325Z,85.1301
2019-05-12T01:15:48.151Z,84.3992
2019-05-12T01:16:51.291Z,84.7974
2019-05-12T01:17:54.293Z,84.5579
2019-05-12T01:18:58.587Z,84.8478
2019-05-12T01:20:01.311Z,82.9435
2019-05-12T01:21:04.289Z,83.4058
2019-05-12T01:22:08.092Z,82.7604
2019-05-12T01:23:11.329Z,82.5772
2019-05-12T01:24:13.305Z,83.0533
2019-05-12T01:25:17.625Z,82.3194
2019-05-12T01:26:20.330Z,82.0996
2019-05-12T01:27:23.290Z,82.2919
2019-05-12T01:28:27.859Z,81.1719
2019-05-12T01:29:31.288Z,81.8204
2019-05-12T01:30:33.345Z,80.8743
2019-05-12T01:31:37.802Z,81.4145
2019-05-12T01:32:41.308Z,80.6622
2019-05-12T01:33:44.341Z,81.1170
2019-05-12T01:34:48.680Z,81.0941
2019-05-12T01:35:51.321Z,80.8774
2019-05-12T01:36:54.298Z,81.8357
2019-05-12T01:38:01.073Z,80.9186
2019-05-12T01:39:04.309Z,80.8698
2019-05-12T01:40:08.910Z,81.0880
2019-05-12T01:41:12.287Z,80.8103
2019-05-12T01:42:18.063Z,81.4908
2019-05-12T01:43:21.441Z,81.2894
2019-05-12T01:44:24.304Z,81.2085
2019-05-12T01:45:28.836Z,80.9842
2019-05-12T01:46:32.324Z,80.6043
2019-05-12T01:47:35.299Z,80.4929
2019-05-12T01:48:38.298Z,80.9476
2019-05-12T01:49:41.292Z,80.8103
2019-05-12T01:50:44.325Z,80.9552
2019-05-12T01:51:47.637Z,81.1017
2019-05-12T01:52:50.320Z,81.0605
2019-05-12T01:54:07.865Z,81.0254
2019-05-12T01:55:01.319Z,81.4832
2019-05-12T01:56:04.330Z,81.6007
2019-05-12T01:57:08.134Z,81.6831
2019-05-12T01:58:11.308Z,81.4679
2019-05-12T01:59:14.325Z,81.5564
2019-05-12T02:00:18.369Z,81.1429
2019-05-12T02:01:21.306Z,81.4221
2019-05-12T02:02:24.268Z,81.6785
2019-05-12T02:03:28.392Z,81.4099
2019-05-12T02:04:31.308Z,81.5183
2019-05-12T02:05:34.338Z,81.3184
2019-05-12T02:06:38.644Z,81.3092
2019-05-12T02:07:42.297Z,81.5518
2019-05-12T02:08:47.609Z,81.5976
2019-05-12T02:09:51.332Z,81.6785
2019-05-12T02:10:54.271Z,81.3260
2019-05-12T02:11:58.229Z,81.8677
2019-05-12T02:13:01.310Z,81.6114
2019-05-12T02:14:04.328Z,81.8311
2019-05-12T02:15:08.172Z,81.7975
2019-05-12T02:16:11.286Z,81.8906
2019-05-12T02:17:14.323Z,81.8067
2019-05-12T02:18:17.787Z,82.0142
2019-05-12T02:19:21.327Z,81.9211
2019-05-12T02:20:24.278Z,81.8891
2019-05-12T02:21:27.942Z,82.1012
2019-05-12T02:22:31.310Z,81.4053
2019-05-12T02:23:34.314Z,81.5564
2019-05-12T02:24:39.025Z,82.1469
2019-05-12T02:25:42.302Z,82.0142
2019-05-12T02:26:45.296Z,82.4704
2019-05-12T02:27:48.301Z,81.7212
2019-05-12T02:28:51.338Z,81.7746
2019-05-12T02:29:54.304Z,81.8296
2019-05-12T02:30:58.998Z,82.0737
2019-05-12T02:32:02.290Z,82.4750
2019-05-12T02:33:05.219Z,82.7039
2019-05-12T02:34:07.707Z,83.1891
2019-05-12T02:35:10.312Z,82.5116
2019-05-12T02:36:15.088Z,82.5269
2019-05-12T02:37:18.280Z,81.8311
2019-05-12T02:38:21.284Z,81.5930
2019-05-12T02:39:25.009Z,81.7578
2019-05-12T02:40:27.334Z,80.8820
2019-05-12T02:41:30.284Z,80.5859
2019-05-12T02:42:34.926Z,78.8052
2019-05-12T02:43:38.312Z,79.4537
2019-05-12T02:44:43.700Z,79.4080
2019-05-12T02:45:47.286Z,78.6542
2019-05-12T02:46:50.268Z,78.8510
2019-05-12T02:47:54.306Z,78.5199
2019-05-12T02:48:57.295Z,78.4939
2019-05-12T02:50:00.315Z,78.4298
2019-05-12T02:51:05.492Z,78.5489
2019-05-12T02:52:07.317Z,78.7503
2019-05-12T02:53:10.288Z,78.1399
2019-05-12T02:54:14.388Z,77.2381
2019-05-12T02:55:17.296Z,77.7920
2019-05-12T02:56:20.305Z,76.8673
2019-05-12T02:57:25.535Z,77.7432
2019-05-12T02:58:29.276Z,77.7798
2019-05-12T02:59:34.723Z,78.3291
2019-05-12T03:00:38.347Z,78.0316
2019-05-12T03:01:41.294Z,78.4054
2019-05-12T03:02:44.397Z,78.1674
2019-05-12T03:03:47.289Z,77.9110
2019-05-12T03:04:50.376Z,78.3276
2019-05-12T03:05:54.858Z,78.8174
2019-05-12T03:07:02.078Z,78.4253
2019-05-12T03:08:06.289Z,78.6526
2019-05-12T03:09:09.305Z,78.4070
2019-05-12T03:10:14.584Z,78.2238
2019-05-12T03:11:17.334Z,78.5153
2019-05-12T03:12:20.252Z,78.6404
2019-05-12T03:13:25.030Z,78.4665
2019-05-12T03:14:28.294Z,78.4665
2019-05-12T03:15:31.299Z,78.4070
2019-05-12T03:16:35.110Z,78.8327
2019-05-12T03:17:38.279Z,78.5107
2019-05-12T03:18:44.685Z,78.5168
2019-05-12T03:19:48.299Z,77.8668
2019-05-12T03:20:54.079Z,78.1399
2019-05-12T03:21:57.288Z,78.7808
2019-05-12T03:23:00.328Z,78.5763
2019-05-12T03:24:05.697Z,78.7671
2019-05-12T03:25:19.958Z,77.6867
2019-05-12T03:26:17.307Z,78.1353
2019-05-12T03:27:20.320Z,78.2879
2019-05-12T03:28:25.610Z,77.9309
2019-05-12T03:29:29.316Z,78.0911
2019-05-12T03:30:37.135Z,77.9522
2019-05-12T03:31:41.332Z,78.2635
2019-05-12T03:32:47.229Z,78.0987
2019-05-12T03:33:54.249Z,78.4756
2019-05-12T03:34:59.356Z,77.6791
2019-05-12T03:36:08.434Z,77.9675
2019-05-12T03:37:10.329Z,78.1353
2019-05-12T03:38:14.820Z,77.6150
2019-05-12T03:39:18.266Z,77.3587
2019-05-12T03:40:24.693Z,77.8897
2019-05-12T03:41:28.300Z,78.1262
2019-05-12T03:42:31.293Z,78.2834
2019-05-12T03:43:35.136Z,78.3429
2019-05-12T03:44:38.347Z,78.1552
2019-05-12T03:45:44.978Z,78.3825
2019-05-12T03:46:47.288Z,78.8312
2019-05-12T03:47:50.299Z,79.9725
2019-05-12T03:48:55.365Z,80.2502
2019-05-12T03:49:58.340Z,80.3113
2019-05-12T03:51:01.284Z,79.6277
2019-05-12T03:52:05.228Z,79.9252
2019-05-12T03:53:10.839Z,79.6704
2019-05-12T03:54:15.244Z,79.8810
2019-05-12T03:55:31.678Z,79.3988
2019-05-12T03:56:26.471Z,79.9451
2019-05-12T03:57:29.285Z,80.1328
2019-05-12T03:58:34.559Z,81.1292
2019-05-12T03:59:38.293Z,81.5793
2019-05-12T04:00:44.184Z,80.7370
2019-05-12T04:01:46.286Z,80.5158
2019-05-12T04:02:49.295Z,80.4166
2019-05-12T04:03:54.200Z,80.2563
2019-05-12T04:04:57.301Z,80.5295
2019-05-12T04:06:00.329Z,80.9430
2019-05-12T04:07:05.133Z,80.9018
2019-05-12T04:08:08.316Z,81.7075
2019-05-12T04:09:11.292Z,81.8433
2019-05-12T04:10:15.598Z,79.6643
2019-05-12T04:11:19.308Z,80.1694
2019-05-12T04:12:25.302Z,80.3662
2019-05-12T04:13:28.248Z,79.8581
2019-05-12T04:14:34.367Z,79.2935
2019-05-12T04:15:37.313Z,79.6460
2019-05-12T04:16:40.335Z,79.0372
2019-05-12T04:17:45.231Z,79.2447
2019-05-12T04:18:48.289Z,79.1943
2019-05-12T04:19:51.347Z,78.3566
2019-05-12T04:20:54.587Z,78.7213
2019-05-12T04:21:57.349Z,79.2889
2019-05-12T04:23:00.279Z,79.3530
2019-05-12T04:24:05.556Z,79.0097
2019-05-12T04:25:08.328Z,79.5880
2019-05-12T04:26:15.736Z,79.9069
2019-05-12T04:27:19.266Z,79.9069
2019-05-12T04:28:24.559Z,80.3571
2019-05-12T04:29:27.286Z,80.8423
2019-05-12T04:30:30.356Z,80.9644
2019-05-12T04:31:34.759Z,81.2161
2019-05-12T04:32:38.297Z,81.3901
2019-05-12T04:33:41.307Z,81.9577
2019-05-12T04:34:44.732Z,81.6510
2019-05-12T04:35:48.331Z,82.2644
2019-05-12T04:36:51.320Z,81.9669
2019-05-12T04:37:55.290Z,82.3423
2019-05-12T04:38:58.289Z,81.1429
2019-05-12T04:40:01.316Z,81.2619
2019-05-12T04:41:05.863Z,81.3321
2019-05-12T04:42:09.265Z,80.4334
2019-05-12T04:43:14.560Z,79.8108
2019-05-12T04:44:17.282Z,80.7141
2019-05-12T04:45:20.323Z,80.6271
2019-05-12T04:46:25.284Z,80.7233
2019-05-12T04:47:27.310Z,79.8657
2019-05-12T04:48:30.291Z,81.4328
2019-05-12T04:49:34.626Z,80.2090
2019-05-12T04:50:37.325Z,79.5544
2019-05-12T04:51:40.279Z,79.5468
2019-05-12T04:52:44.648Z,80.8362
2019-05-12T04:53:48.272Z,81.1154
2019-05-12T04:54:51.292Z,82.2980
2019-05-12T04:56:09.662Z,82.1515
2019-05-12T04:57:04.178Z,80.7736
2019-05-12T04:58:07.286Z,80.6180
2019-05-12T04:59:10.301Z,79.2309
2019-05-12T05:00:15.860Z,79.8428
2019-05-12T05:01:19.287Z,79.9573
2019-05-12T05:02:25.060Z,79.3896
2019-05-12T05:03:28.300Z,79.4369
2019-05-12T05:04:31.320Z,78.0301
2019-05-12T05:05:35.324Z,78.0682
2019-05-12T05:06:39.295Z,77.8012
2019-05-12T05:07:44.834Z,78.8602
2019-05-12T05:08:48.295Z,77.8897
2019-05-12T05:09:51.326Z,78.6908
2019-05-12T05:10:54.885Z,78.2742
2019-05-12T05:11:58.299Z,77.7890
2019-05-12T05:13:01.290Z,77.3861
2019-05-12T05:14:04.460Z,77.6516
2019-05-12T05:15:07.326Z,77.8210
2019-05-12T05:16:10.316Z,77.5189
2019-05-12T05:17:15.072Z,76.8322
2019-05-12T05:18:18.288Z,76.0479
2019-05-12T05:19:21.264Z,76.1501
2019-05-12T05:20:24.349Z,76.5331
2019-05-12T05:21:27.283Z,75.7595
2019-05-12T05:22:30.254Z,75.1522
2019-05-12T05:23:33.588Z,75.3704
2019-05-12T05:24:35.304Z,75.7427
2019-05-12T05:25:38.358Z,75.0729
2019-05-12T05:26:43.448Z,76.1227
2019-05-12T05:27:46.312Z,75.6176
2019-05-12T05:28:49.268Z,75.3933
2019-05-12T05:29:54.184Z,74.9020
2019-05-12T05:30:57.287Z,74.9218
2019-05-12T05:32:00.289Z,74.6563
2019-05-12T05:33:04.490Z,75.0057
2019-05-12T05:34:08.278Z,75.6176
2019-05-12T05:35:13.301Z,75.4543
2019-05-12T05:36:19.746Z,75.3201
2019-05-12T05:37:23.921Z,75.8297
2019-05-12T05:38:27.290Z,75.9487
2019-05-12T05:39:30.300Z,75.2651
2019-05-12T05:40:35.359Z,74.8699
2019-05-12T05:41:40.337Z,74.3084
2019-05-12T05:42:47.285Z,74.2397
2019-05-12T05:43:54.278Z,74.3572
2019-05-12T05:44:57.269Z,73.9925
2019-05-12T05:46:07.048Z,74.1009
2019-05-12T05:47:10.337Z,74.0566
2019-05-12T05:48:13.705Z,73.8460
2019-05-12T05:49:16.301Z,73.8170
2019-05-12T05:50:25.106Z,73.3684
2019-05-12T05:51:27.332Z,73.1716
2019-05-12T05:52:33.062Z,72.8069
2019-05-12T05:53:38.306Z,73.2967
2019-05-12T05:54:41.271Z,73.8766
2019-05-12T05:55:44.342Z,73.7850
2019-05-12T05:56:57.498Z,74.5693
2019-05-12T05:57:59.708Z,74.1344
2019-05-12T05:59:05.337Z,74.6044
2019-05-12T06:00:17.320Z,74.5922
2019-05-12T06:01:16.355Z,74.6563
2019-05-12T06:02:24.440Z,74.4671
2019-05-12T06:03:28.054Z,74.4320
2019-05-12T06:04:31.298Z,74.3206
2019-05-12T06:05:38.544Z,74.5449
2019-05-12T06:06:50.405Z,73.9864
2019-05-12T06:07:50.304Z,73.4844
2019-05-12T06:08:54.496Z,73.6523
2019-05-12T06:09:57.317Z,72.9931
2019-05-12T06:11:00.300Z,72.7001
2019-05-12T06:12:05.280Z,73.3959
2019-05-12T06:13:11.253Z,73.2311
2019-05-12T06:14:16.276Z,73.8277
2019-05-12T06:15:19.285Z,74.2977
2019-05-12T06:16:25.088Z,74.6929
2019-05-12T06:17:28.290Z,75.0500
2019-05-12T06:18:33.305Z,75.0729
2019-05-12T06:19:36.306Z,74.8211
2019-05-12T06:20:39.268Z,73.6126
2019-05-12T06:21:44.055Z,74.3526
2019-05-12T06:22:48.603Z,73.2174
2019-05-12T06:23:55.315Z,73.4279
2019-05-12T06:24:59.004Z,73.2906
2019-05-12T06:26:04.352Z,72.7825
2019-05-12T06:27:15.112Z,73.0266
2019-05-12T06:28:16.264Z,73.6034
2019-05-12T06:29:20.789Z,73.0663
2019-05-12T06:30:25.288Z,73.0846
2019-05-12T06:31:29.806Z,73.8781
2019-05-12T06:32:33.675Z,73.7957
2019-05-12T06:33:36.507Z,73.2280
2019-05-12T06:34:39.299Z,73.2219
2019-05-12T06:35:45.124Z,73.5760
2019-05-12T06:36:48.335Z,73.9422
2019-05-12T06:38:00.185Z,73.9956
2019-05-12T06:38:59.297Z,73.5836
2019-05-12T06:40:03.589Z,73.7026
2019-05-12T06:41:06.333Z,73.6675
2019-05-12T06:42:14.134Z,72.8847
2019-05-12T06:43:17.335Z,72.5353
2019-05-12T06:44:20.272Z,72.0958
2019-05-12T06:45:23.530Z,72.4819
2019-05-12T06:46:26.300Z,73.3471
2019-05-12T06:47:28.327Z,73.5470
2019-05-12T06:48:33.210Z,73.8781
2019-05-12T06:49:36.309Z,73.8079
2019-05-12T06:50:39.567Z,74.1665
2019-05-12T06:51:44.295Z,73.9834
2019-05-12T06:52:49.123Z,74.1924
2019-05-12T06:53:53.463Z,74.3313
2019-05-12T06:54:56.810Z,73.6675
2019-05-12T06:56:00.318Z,73.4112
2019-05-12T06:57:18.548Z,73.4874
2019-05-12T06:58:13.811Z,73.1991
2019-05-12T06:59:17.338Z,73.1273
2019-05-12T07:00:22.378Z,72.7977
2019-05-12T07:01:28.315Z,72.3293
2019-05-12T07:02:37.188Z,72.3812
2019-05-12T07:03:39.281Z,72.4727
2019-05-12T07:04:47.498Z,72.9351
2019-05-12T07:05:50.270Z,72.7504
2019-05-12T07:06:56.086Z,72.5399
2019-05-12T07:08:04.000Z,72.2332
2019-05-12T07:09:09.864Z,72.1920
2019-05-12T07:10:35.172Z,71.3695
2019-05-12T07:11:24.292Z,70.8614
2019-05-12T07:12:32.781Z,71.5526
2019-05-12T07:13:34.362Z,71.8303
2019-05-12T07:14:37.328Z,71.9951
2019-05-12T07:15:40.730Z,72.9946
2019-05-12T07:16:44.296Z,73.5164
2019-05-12T07:17:49.738Z,73.4615
2019-05-12T07:18:54.176Z,73.1167
2019-05-12T07:19:58.363Z,72.8786
2019-05-12T07:21:01.334Z,71.7662
2019-05-12T07:22:18.844Z,72.3262
2019-05-12T07:23:14.261Z,72.4269
2019-05-12T07:24:17.330Z,72.1965
2019-05-12T07:25:22.933Z,72.3857
2019-05-12T07:26:28.308Z,72.5460
2019-05-12T07:27:36.814Z,72.2438
2019-05-12T07:28:40.471Z,72.3613
2019-05-12T07:29:43.667Z,71.6747
2019-05-12T07:30:46.294Z,71.7311
2019-05-12T07:31:49.294Z,71.5969
2019-05-12T07:32:59.379Z,72.5231
2019-05-12T07:34:00.285Z,72.7459
2019-05-12T07:35:03.913Z,72.2667
2019-05-12T07:36:07.270Z,71.1620
2019-05-12T07:37:10.283Z,71.1803
2019-05-12T07:38:20.970Z,71.7296
2019-05-12T07:39:21.299Z,72.1843
2019-05-12T07:40:29.719Z,70.5257
2019-05-12T07:41:34.201Z,71.9677
2019-05-12T07:42:39.536Z,70.7042
2019-05-12T07:43:44.357Z,70.6950
2019-05-12T07:44:47.322Z,71.1635
2019-05-12T07:45:53.979Z,71.7296
2019-05-12T07:46:58.316Z,70.9102
2019-05-12T07:48:08.144Z,70.9010
2019-05-12T07:49:09.304Z,71.2230
2019-05-12T07:50:16.192Z,71.9860
2019-05-12T07:51:20.306Z,71.1940
2019-05-12T07:52:24.235Z,71.0811
2019-05-12T07:53:27.319Z,70.9117
2019-05-12T07:54:35.344Z,70.7271
2019-05-12T07:55:39.856Z,70.7500
2019-05-12T07:56:46.300Z,70.9438
2019-05-12T07:57:55.368Z,71.1620
2019-05-12T07:58:57.344Z,69.6803
2019-05-12T08:00:00.294Z,68.9982
2019-05-12T08:01:07.662Z,69.3446
2019-05-12T08:02:10.280Z,69.8222
2019-05-12T08:03:19.005Z,69.3553
2019-05-12T08:04:21.303Z,68.9189
2019-05-12T08:05:24.326Z,68.7511
2019-05-12T08:06:31.870Z,69.3782
2019-05-12T08:07:35.307Z,68.3513
2019-05-12T08:08:41.884Z,69.0288
2019-05-12T08:09:46.326Z,69.3965
2019-05-12T08:10:51.503Z,68.7373
2019-05-12T08:11:56.342Z,67.5044
2019-05-12T08:13:00.883Z,68.0491
2019-05-12T08:14:04.288Z,65.8076
2019-05-12T08:15:09.596Z,65.5329
2019-05-12T08:16:14.171Z,67.4235
2019-05-12T08:17:19.658Z,67.4449
2019-05-12T08:18:24.616Z,66.7948
2019-05-12T08:19:28.575Z,67.2999
2019-05-12T08:20:31.305Z,67.1656
2019-05-12T08:21:34.757Z,68.7923
2019-05-12T08:22:43.609Z,65.6870
2019-05-12T08:23:47.308Z,67.4449
2019-05-12T08:24:50.312Z,67.6204
2019-05-12T08:25:54.025Z,66.0365
2019-05-12T08:27:03.332Z,66.4393
2019-05-12T08:28:14.968Z,65.7511
2019-05-12T08:29:16.889Z,65.6367
2019-05-12T08:30:21.271Z,68.6809
2019-05-12T08:31:31.894Z,66.6636
2019-05-12T08:32:33.869Z,65.8854
2019-05-12T08:33:37.291Z,66.1677
2019-05-12T08:34:40.311Z,65.9297
2019-05-12T08:35:43.902Z,62.8946
2019-05-12T08:36:53.276Z,64.4327
2019-05-12T08:37:55.307Z,66.8132
2019-05-12T08:38:58.316Z,65.2979
2019-05-12T08:40:04.366Z,64.9516
2019-05-12T08:41:09.285Z,64.5075
2019-05-12T08:42:14.377Z,64.1901
2019-05-12T08:43:17.291Z,63.9796
2019-05-12T08:44:24.842Z,64.7761
2019-05-12T08:45:34.002Z,62.9908
2019-05-12T08:46:36.292Z,60.0305
2019-05-12T08:47:39.365Z,60.8637
2019-05-12T08:48:44.390Z,59.9145
2019-05-12T08:49:55.156Z,59.9878
2019-05-12T08:50:56.315Z,60.4105
2019-05-12T08:52:00.360Z,58.7076
2019-05-12T08:53:04.704Z,58.9456
2019-05-12T08:54:08.501Z,60.1114
2019-05-12T08:55:13.856Z,58.9670
2019-05-12T08:56:22.886Z,60.0534
2019-05-12T08:57:34.827Z,59.8413
2019-05-12T08:58:47.301Z,61.9989
2019-05-12T08:59:44.119Z,61.2650
2019-05-12T09:00:50.307Z,61.2528
2019-05-12T09:01:54.297Z,62.0157
2019-05-12T09:02:57.327Z,61.5076
2019-05-12T09:04:05.423Z,61.8875
2019-05-12T09:05:08.299Z,61.6876
2019-05-12T09:06:17.919Z,59.8047
2019-05-12T09:07:19.304Z,60.3723
2019-05-12T09:08:24.218Z,60.4974
2019-05-12T09:09:27.271Z,59.8611
2019-05-12T09:10:30.326Z,59.8413
2019-05-12T09:11:33.688Z,59.4629
2019-05-12T09:12:37.303Z,58.7289
2019-05-12T09:13:40.340Z,58.2681
2019-05-12T09:14:46.161Z,58.7381
2019-05-12T09:15:49.343Z,59.9329
2019-05-12T09:16:53.670Z,60.1679
2019-05-12T09:18:00.370Z,60.5783
2019-05-12T09:19:04.883Z,59.6124
2019-05-12T09:20:08.656Z,60.3037
2019-05-12T09:21:14.054Z,58.0743
2019-05-12T09:22:20.836Z,60.1587
2019-05-12T09:23:24.350Z,59.0372
2019-05-12T09:24:27.551Z,57.1328
2019-05-12T09:25:30.357Z,57.6593
2019-05-12T09:26:34.438Z,56.9268
2019-05-12T09:27:39.452Z,57.3510
2019-05-12T09:28:50.086Z,55.1186
2019-05-12T09:29:54.014Z,51.3634
2019-05-12T09:30:57.403Z,52.3537
2019-05-12T09:32:05.467Z,54.5403
2019-05-12T09:33:08.331Z,57.1054
2019-05-12T09:34:13.482Z,56.1059
2019-05-12T09:35:19.307Z,56.9345
2019-05-12T09:36:24.278Z,57.2564
2019-05-12T09:37:30.909Z,56.2387
2019-05-12T09:38:35.331Z,55.7229
2019-05-12T09:39:42.454Z,56.0693
2019-05-12T09:40:46.329Z,56.7605
2019-05-12T09:41:52.583Z,56.7941
2019-05-12T09:43:00.250Z,57.1832
2019-05-12T09:44:05.311Z,55.4376
2019-05-12T09:45:10.504Z,56.3531
2019-05-12T09:46:14.518Z,57.7905
2019-05-12T09:47:22.948Z,58.3001
2019-05-12T09:48:25.338Z,58.6023
2019-05-12T09:49:38.451Z,57.6852
2019-05-12T09:50:36.310Z,57.9248
2019-05-12T09:51:45.649Z,57.5662
2019-05-12T09:52:50.186Z,58.0484
2019-05-12T09:53:55.562Z,57.2320
2019-05-12T09:54:59.307Z,56.8063
2019-05-12T09:56:04.349Z,56.0830
2019-05-12T09:57:07.363Z,55.4513
2019-05-12T09:58:13.976Z,57.0687
2019-05-12T09:59:22.568Z,55.9411
2019-05-12T10:00:25.334Z,54.3358
2019-05-12T10:01:29.267Z,55.2743
2019-05-12T10:02:36.336Z,53.4737
2019-05-12T10:03:40.154Z,54.9447
2019-05-12T10:04:43.765Z,53.2830
2019-05-12T10:05:46.311Z,52.5765
2019-05-12T10:06:49.355Z,55.2087
2019-05-12T10:07:53.623Z,55.6954
2019-05-12T10:08:56.308Z,54.2657
2019-05-12T10:09:59.173Z,56.1578
2019-05-12T10:11:03.723Z,53.0617
2019-05-12T10:12:07.321Z,54.1421
2019-05-12T10:13:10.305Z,52.6101
2019-05-12T10:14:13.975Z,54.0734
2019-05-12T10:15:18.710Z,53.7179
2019-05-12T10:16:25.304Z,53.4020
2019-05-12T10:17:30.135Z,54.8394
2019-05-12T10:18:33.646Z,55.1415
2019-05-12T10:19:37.314Z,54.7738
2019-05-12T10:20:40.283Z,53.3837
2019-05-12T10:21:44.013Z,52.5902
2019-05-12T10:22:47.328Z,53.6492
2019-05-12T10:23:51.517Z,54.0658
2019-05-12T10:24:58.701Z,54.1192
2019-05-12T10:26:09.471Z,52.6223
2019-05-12T10:27:10.317Z,53.1182
2019-05-12T10:28:15.898Z,51.7708
2019-05-12T10:29:20.804Z,51.2871
2019-05-12T10:30:24.289Z,51.5068
2019-05-12T10:31:29.529Z,52.2255
2019-05-12T10:32:35.315Z,51.3787
2019-05-12T10:33:38.318Z,51.9280
2019-05-12T10:34:41.290Z,53.3318
2019-05-12T10:35:44.315Z,52.3217
2019-05-12T10:36:49.220Z,53.2418
2019-05-12T10:37:53.745Z,54.2535
2019-05-12T10:38:57.326Z,53.4188
2019-05-12T10:40:00.340Z,53.2830
2019-05-12T10:41:04.319Z,53.4783
2019-05-12T10:42:07.292Z,54.0002
2019-05-12T10:43:10.363Z,53.6538
2019-05-12T10:44:13.931Z,54.0749
2019-05-12T10:45:20.605Z,53.2677
2019-05-12T10:46:28.627Z,55.3704
2019-05-12T10:47:34.262Z,53.8689
2019-05-12T10:48:38.357Z,53.6980
2019-05-12T10:49:41.310Z,53.1487
2019-05-12T10:50:44.248Z,54.0520
2019-05-12T10:51:47.778Z,53.5164
2019-05-12T10:52:53.519Z,53.3272
2019-05-12T10:54:01.965Z,53.6995
2019-05-12T10:55:04.515Z,54.8058
2019-05-12T10:56:06.288Z,55.0591
2019-05-12T10:57:09.363Z,54.6502
2019-05-12T10:58:14.346Z,54.7005
2019-05-12T10:59:29.167Z,54.8852
2019-05-12T11:00:26.854Z,55.2514
2019-05-12T11:01:30.292Z,53.2189
2019-05-12T11:02:33.680Z,53.4600
2019-05-12T11:03:37.311Z,53.7301
2019-05-12T11:04:41.281Z,54.3114
2019-05-12T11:05:46.354Z,52.9656
2019-05-12T11:06:49.328Z,53.3333
2019-05-12T11:07:53.978Z,53.7316
2019-05-12T11:08:57.334Z,52.9290
2019-05-12T11:10:03.536Z,50.5669
2019-05-12T11:11:08.325Z,51.7708
2019-05-12T11:12:13.663Z,52.7001
2019-05-12T11:13:18.109Z,50.4021
2019-05-12T11:14:26.320Z,49.6712
2019-05-12T11:15:29.297Z,52.2652
2019-05-12T11:16:34.453Z,51.9036
2019-05-12T11:17:40.174Z,52.3308
2019-05-12T11:18:43.731Z,49.2897
2019-05-12T11:19:51.335Z,49.8909
2019-05-12T11:20:55.306Z,49.7719
2019-05-12T11:21:58.280Z,48.8884
2019-05-12T11:23:03.298Z,48.8548
2019-05-12T11:24:07.297Z,48.7495
2019-05-12T11:25:10.389Z,49.8589
2019-05-12T11:26:14.184Z,48.6275
2019-05-12T11:27:17.332Z,49.2180
2019-05-12T11:28:20.326Z,49.3950
2019-05-12T11:29:23.641Z,48.0186
2019-05-12T11:30:27.339Z,49.1707
2019-05-12T11:31:30.281Z,51.4519
2019-05-12T11:32:34.928Z,50.3700
2019-05-12T11:33:43.471Z,50.8522
2019-05-12T11:34:47.308Z,51.3222
2019-05-12T11:35:50.343Z,52.7779
2019-05-12T11:36:54.532Z,51.2596
2019-05-12T11:37:56.279Z,51.2825
2019-05-12T11:38:59.298Z,50.0648
2019-05-12T11:40:04.272Z,50.2373
2019-05-12T11:41:09.908Z,51.0933
2019-05-12T11:42:15.286Z,50.9102
2019-05-12T11:43:18.318Z,49.6849
2019-05-12T11:44:23.177Z,51.7311
2019-05-12T11:45:26.371Z,52.1843
2019-05-12T11:46:29.265Z,52.2438
2019-05-12T11:47:35.572Z,52.0729
2019-05-12T11:48:45.184Z,52.9625
2019-05-12T11:49:48.281Z,53.1441
2019-05-12T11:50:51.472Z,52.9427
2019-05-12T11:51:54.495Z,53.3730
2019-05-12T11:52:57.300Z,52.8023
2019-05-12T11:54:03.414Z,52.8298
2019-05-12T11:55:08.295Z,53.4874
2019-05-12T11:56:10.332Z,52.0562
2019-05-12T11:57:13.310Z,51.9646
2019-05-12T11:58:16.338Z,53.2402
2019-05-12T11:59:19.305Z,51.8578
2019-05-12T12:00:24.197Z,52.1248
2019-05-12T12:01:27.335Z,49.2821
2019-05-12T12:02:30.630Z,49.6986
2019-05-12T12:03:34.290Z,47.6783
2019-05-12T12:04:37.315Z,48.4215
2019-05-12T12:05:40.285Z,49.0059
2019-05-12T12:06:43.811Z,47.1382
2019-05-12T12:07:51.379Z,46.2867
2019-05-12T12:08:54.298Z,46.6529
2019-05-12T12:09:59.444Z,46.4561
2019-05-12T12:11:03.975Z,44.1962
2019-05-12T12:12:07.539Z,44.6799
2019-05-12T12:13:10.281Z,45.3223
2019-05-12T12:14:14.269Z,44.7990
2019-05-12T12:15:20.472Z,42.8809
2019-05-12T12:16:25.334Z,43.9490
2019-05-12T12:17:31.017Z,47.6799
2019-05-12T12:18:35.312Z,41.5686
2019-05-12T12:19:43.851Z,44.6662
2019-05-12T12:20:46.322Z,42.5437
2019-05-12T12:21:50.155Z,42.5483
2019-05-12T12:22:54.259Z,44.1169
2019-05-12T12:23:57.320Z,43.4302
2019-05-12T12:25:03.186Z,42.5696
2019-05-12T12:26:08.324Z,43.8239
2019-05-12T12:27:11.316Z,47.7531
2019-05-12T12:28:14.366Z,48.2231
2019-05-12T12:29:17.289Z,48.7861
2019-05-12T12:30:20.315Z,49.4011
2019-05-12T12:31:23.832Z,47.1382
2019-05-12T12:32:27.343Z,48.1788
2019-05-12T12:33:31.130Z,48.2689
2019-05-12T12:34:38.320Z,48.5313
2019-05-12T12:35:41.372Z,47.5059
2019-05-12T12:36:44.260Z,46.6987
2019-05-12T12:37:47.343Z,49.1386
2019-05-12T12:38:50.296Z,47.7836
2019-05-12T12:39:53.662Z,49.1432
2019-05-12T12:40:57.283Z,48.7327
2019-05-12T12:42:00.897Z,51.2032
2019-05-12T12:43:04.333Z,50.1656
2019-05-12T12:44:07.273Z,49.5796
2019-05-12T12:45:10.346Z,48.3284
2019-05-12T12:46:18.178Z,47.5959
2019-05-12T12:47:23.691Z,43.8880
2019-05-12T12:48:29.741Z,41.9196
2019-05-12T12:49:33.947Z,44.4938
2019-05-12T12:50:37.283Z,45.1347
2019-05-12T12:51:40.310Z,45.4307
2019-05-12T12:52:44.855Z,48.7739
2019-05-12T12:53:51.358Z,46.7674
2019-05-12T12:54:54.407Z,48.0049
2019-05-12T12:55:58.672Z,48.3879
2019-05-12T12:57:06.322Z,47.9164